sensor_id;sensor_type;location;lat;lon;timestamp;pressure;altitude;pressure_sealevel;temperature;humidity
14134;BME280;7147;59.364;18.018;2022-09-28T00:00:37;99966.22;;;13.73;100.00
14134;BME280;7147;59.364;18.018;2022-09-28T00:03:07;99965.63;;;13.71;100.00
14134;BME280;7147;59.364;18.018;2022-09-28T00:05:34;99972.00;;;13.71;100.00
14134;BME280;7147;59.364;18.018;2022-09-28T00:08:01;99964.78;;;13.70;100.00
14134;BME280;7147;59.364;18.018;2022-09-28T00:10:27;99963.25;;;13.74;100.00
14134;BME280;7147;59.364;18.018;2022-09-28T00:12:54;99963.34;;;13.79;100.00
14134;BME280;7147;59.364;18.018;2022-09-28T00:15:21;99969.34;;;13.76;100.00
14134;BME280;7147;59.364;18.018;2022-09-28T00:17:49;99965.16;;;13.74;100.00
14134;BME280;7147;59.364;18.018;2022-09-28T00:20:18;99962.03;;;13.70;100.00
14134;BME280;7147;59.364;18.018;2022-09-28T00:22:46;99963.38;;;13.68;100.00
14134;BME280;7147;59.364;18.018;2022-09-28T00:25:13;99961.69;;;13.67;100.00
14134;BME280;7147;59.364;18.018;2022-09-28T00:27:41;99967.22;;;13.67;100.00
14134;BME280;7147;59.364;18.018;2022-09-28T00:30:09;99965.06;;;13.69;100.00
14134;BME280;7147;59.364;18.018;2022-09-28T00:32:35;99955.69;;;13.70;100.00
14134;BME280;7147;59.364;18.018;2022-09-28T00:35:02;99966.13;;;13.68;100.00
14134;BME280;7147;59.364;18.018;2022-09-28T00:37:31;99965.75;;;13.64;100.00
14134;BME280;7147;59.364;18.018;2022-09-28T00:39:58;99964.34;;;13.62;100.00
14134;BME280;7147;59.364;18.018;2022-09-28T00:42:25;99972.88;;;13.60;100.00
14134;BME280;7147;59.364;18.018;2022-09-28T00:44:52;99964.34;;;13.62;100.00
14134;BME280;7147;59.364;18.018;2022-09-28T00:47:36;99964.59;;;13.60;100.00
14134;BME280;7147;59.364;18.018;2022-09-28T00:50:08;99960.72;;;13.61;100.00
14134;BME280;7147;59.364;18.018;2022-09-28T00:52:40;99959.06;;;13.60;100.00
14134;BME280;7147;59.364;18.018;2022-09-28T00:55:10;99951.25;;;13.57;100.00
14134;BME280;7147;59.364;18.018;2022-09-28T00:57:40;99961.69;;;13.55;100.00
14134;BME280;7147;59.364;18.018;2022-09-28T01:00:10;99960.50;;;13.51;100.00
14134;BME280;7147;59.364;18.018;2022-09-28T01:02:38;99958.34;;;13.53;100.00
14134;BME280;7147;59.364;18.018;2022-09-28T01:05:06;99957.84;;;13.56;100.00
14134;BME280;7147;59.364;18.018;2022-09-28T01:07:35;99964.94;;;13.52;100.00
14134;BME280;7147;59.364;18.018;2022-09-28T01:10:05;99955.34;;;13.55;100.00
14134;BME280;7147;59.364;18.018;2022-09-28T01:12:32;99960.41;;;13.58;100.00
14134;BME280;7147;59.364;18.018;2022-09-28T01:14:59;99960.13;;;13.59;100.00
14134;BME280;7147;59.364;18.018;2022-09-28T01:17:34;99969.63;;;13.63;100.00
14134;BME280;7147;59.364;18.018;2022-09-28T01:28:52;99954.97;;;13.63;100.00
14134;BME280;7147;59.364;18.018;2022-09-28T01:31:26;99961.09;;;13.65;100.00
14134;BME280;7147;59.364;18.018;2022-09-28T01:33:59;99959.03;;;13.72;100.00
14134;BME280;7147;59.364;18.018;2022-09-28T01:36:32;99961.06;;;13.76;100.00
14134;BME280;7147;59.364;18.018;2022-09-28T01:39:04;99965.50;;;13.77;100.00
14134;BME280;7147;59.364;18.018;2022-09-28T01:41:34;99970.56;;;13.80;100.00
14134;BME280;7147;59.364;18.018;2022-09-28T01:44:05;99968.28;;;13.77;100.00
14134;BME280;7147;59.364;18.018;2022-09-28T01:46:38;99957.34;;;13.71;100.00
14134;BME280;7147;59.364;18.018;2022-09-28T01:49:09;99969.84;;;13.73;100.00
14134;BME280;7147;59.364;18.018;2022-09-28T01:51:41;99959.88;;;13.72;100.00
14134;BME280;7147;59.364;18.018;2022-09-28T01:54:11;99974.19;;;13.69;100.00
14134;BME280;7147;59.364;18.018;2022-09-28T01:56:42;99964.22;;;13.68;100.00
14134;BME280;7147;59.364;18.018;2022-09-28T01:59:14;99968.31;;;13.66;100.00
14134;BME280;7147;59.364;18.018;2022-09-28T02:01:46;99963.50;;;13.61;100.00
14134;BME280;7147;59.364;18.018;2022-09-28T02:04:17;99970.72;;;13.62;100.00
14134;BME280;7147;59.364;18.018;2022-09-28T02:06:48;99963.00;;;13.64;100.00
14134;BME280;7147;59.364;18.018;2022-09-28T02:09:19;99970.47;;;13.64;100.00
14134;BME280;7147;59.364;18.018;2022-09-28T02:11:53;99968.78;;;13.63;100.00
14134;BME280;7147;59.364;18.018;2022-09-28T02:14:23;99958.31;;;13.65;100.00
14134;BME280;7147;59.364;18.018;2022-09-28T02:16:52;99964.09;;;13.63;100.00
14134;BME280;7147;59.364;18.018;2022-09-28T02:19:22;99959.66;;;13.62;100.00
14134;BME280;7147;59.364;18.018;2022-09-28T02:21:53;99969.75;;;13.57;100.00
14134;BME280;7147;59.364;18.018;2022-09-28T02:24:25;99953.16;;;13.57;100.00
14134;BME280;7147;59.364;18.018;2022-09-28T02:26:55;99962.53;;;13.56;100.00
14134;BME280;7147;59.364;18.018;2022-09-28T02:29:26;99959.31;;;13.47;100.00
14134;BME280;7147;59.364;18.018;2022-09-28T02:31:52;99951.41;;;13.39;100.00
14134;BME280;7147;59.364;18.018;2022-09-28T02:34:19;99961.50;;;13.33;100.00
14134;BME280;7147;59.364;18.018;2022-09-28T02:36:46;99961.00;;;13.25;100.00
14134;BME280;7147;59.364;18.018;2022-09-28T02:39:14;99961.00;;;13.25;100.00
14134;BME280;7147;59.364;18.018;2022-09-28T02:41:53;99958.97;;;13.20;100.00
14134;BME280;7147;59.364;18.018;2022-09-28T02:44:40;99960.88;;;13.20;100.00
14134;BME280;7147;59.364;18.018;2022-09-28T02:47:15;99965.69;;;13.13;100.00
14134;BME280;7147;59.364;18.018;2022-09-28T02:49:49;99955.34;;;13.08;100.00
14134;BME280;7147;59.364;18.018;2022-09-28T02:52:32;99961.72;;;13.09;100.00
14134;BME280;7147;59.364;18.018;2022-09-28T02:55:16;99964.00;;;13.12;100.00
14134;BME280;7147;59.364;18.018;2022-09-28T02:57:59;99959.69;;;13.16;100.00
14134;BME280;7147;59.364;18.018;2022-09-28T03:00:31;99965.22;;;13.16;100.00
14134;BME280;7147;59.364;18.018;2022-09-28T03:03:10;99956.94;;;13.16;100.00
14134;BME280;7147;59.364;18.018;2022-09-28T03:05:46;99969.66;;;13.28;100.00
14134;BME280;7147;59.364;18.018;2022-09-28T03:08:22;99963.78;;;13.25;100.00
14134;BME280;7147;59.364;18.018;2022-09-28T03:10:55;99970.38;;;13.24;100.00
14134;BME280;7147;59.364;18.018;2022-09-28T03:13:24;99964.47;;;13.20;100.00
14134;BME280;7147;59.364;18.018;2022-09-28T03:16:06;99963.63;;;13.08;100.00
14134;BME280;7147;59.364;18.018;2022-09-28T03:18:32;99965.44;;;13.14;100.00
14134;BME280;7147;59.364;18.018;2022-09-28T03:21:00;99969.41;;;13.18;100.00
14134;BME280;7147;59.364;18.018;2022-09-28T03:23:28;99962.81;;;13.19;100.00
14134;BME280;7147;59.364;18.018;2022-09-28T03:25:54;99951.50;;;13.21;100.00
14134;BME280;7147;59.364;18.018;2022-09-28T03:28:21;99962.44;;;13.16;100.00
14134;BME280;7147;59.364;18.018;2022-09-28T03:30:48;99950.19;;;13.12;100.00
14134;BME280;7147;59.364;18.018;2022-09-28T03:33:16;99958.09;;;13.20;100.00
14134;BME280;7147;59.364;18.018;2022-09-28T03:35:45;99958.59;;;13.17;100.00
14134;BME280;7147;59.364;18.018;2022-09-28T03:38:12;99962.16;;;13.06;100.00
14134;BME280;7147;59.364;18.018;2022-09-28T03:40:39;99961.94;;;13.07;100.00
14134;BME280;7147;59.364;18.018;2022-09-28T03:43:05;99968.78;;;13.05;100.00
14134;BME280;7147;59.364;18.018;2022-09-28T03:45:32;99960.84;;;12.97;100.00
14134;BME280;7147;59.364;18.018;2022-09-28T03:47:59;99961.47;;;12.99;100.00
14134;BME280;7147;59.364;18.018;2022-09-28T03:50:27;99958.31;;;12.95;100.00
14134;BME280;7147;59.364;18.018;2022-09-28T03:52:54;99966.25;;;12.92;100.00
14134;BME280;7147;59.364;18.018;2022-09-28T03:55:21;99955.56;;;12.83;100.00
14134;BME280;7147;59.364;18.018;2022-09-28T03:57:52;99950.16;;;12.88;100.00
14134;BME280;7147;59.364;18.018;2022-09-28T04:00:20;99962.25;;;12.87;100.00
14134;BME280;7147;59.364;18.018;2022-09-28T04:02:47;99958.22;;;12.90;100.00
14134;BME280;7147;59.364;18.018;2022-09-28T04:05:14;99954.81;;;12.88;100.00
14134;BME280;7147;59.364;18.018;2022-09-28T04:07:42;99956.16;;;12.85;100.00
14134;BME280;7147;59.364;18.018;2022-09-28T04:10:09;99956.03;;;12.80;100.00
14134;BME280;7147;59.364;18.018;2022-09-28T04:12:36;99963.47;;;12.80;100.00
14134;BME280;7147;59.364;18.018;2022-09-28T04:15:03;99956.72;;;12.76;100.00
14134;BME280;7147;59.364;18.018;2022-09-28T04:17:32;99961.53;;;12.69;100.00
14134;BME280;7147;59.364;18.018;2022-09-28T04:19:58;99962.72;;;12.73;100.00
14134;BME280;7147;59.364;18.018;2022-09-28T04:22:27;99960.91;;;12.78;100.00
14134;BME280;7147;59.364;18.018;2022-09-28T04:24:55;99955.66;;;12.88;100.00
14134;BME280;7147;59.364;18.018;2022-09-28T04:27:22;99975.13;;;12.94;100.00
14134;BME280;7147;59.364;18.018;2022-09-28T04:30:08;99964.22;;;12.99;100.00
14134;BME280;7147;59.364;18.018;2022-09-28T04:32:35;99967.25;;;13.09;100.00
14134;BME280;7147;59.364;18.018;2022-09-28T04:35:02;99973.13;;;13.12;100.00
14134;BME280;7147;59.364;18.018;2022-09-28T04:37:29;99970.13;;;13.14;100.00
14134;BME280;7147;59.364;18.018;2022-09-28T04:39:57;99972.41;;;13.17;100.00
14134;BME280;7147;59.364;18.018;2022-09-28T04:42:24;99973.13;;;13.12;100.00
14134;BME280;7147;59.364;18.018;2022-09-28T04:44:51;99968.19;;;13.14;100.00
14134;BME280;7147;59.364;18.018;2022-09-28T04:47:18;99967.50;;;13.19;100.00
14134;BME280;7147;59.364;18.018;2022-09-28T04:49:47;99963.41;;;13.10;100.00
14134;BME280;7147;59.364;18.018;2022-09-28T04:52:14;99964.59;;;13.14;100.00
14134;BME280;7147;59.364;18.018;2022-09-28T04:54:41;99962.44;;;13.16;100.00
14134;BME280;7147;59.364;18.018;2022-09-28T04:57:09;99962.91;;;13.01;100.00
14134;BME280;7147;59.364;18.018;2022-09-28T04:59:36;99971.41;;;13.00;100.00
14134;BME280;7147;59.364;18.018;2022-09-28T05:02:03;99969.38;;;13.07;100.00
14134;BME280;7147;59.364;18.018;2022-09-28T05:04:30;99962.81;;;13.08;100.00
14134;BME280;7147;59.364;18.018;2022-09-28T05:06:57;99969.16;;;13.20;100.00
14134;BME280;7147;59.364;18.018;2022-09-28T05:09:23;99960.75;;;13.26;100.00
14134;BME280;7147;59.364;18.018;2022-09-28T05:11:51;99960.66;;;13.21;100.00
14134;BME280;7147;59.364;18.018;2022-09-28T05:14:19;99967.38;;;13.25;100.00
14134;BME280;7147;59.364;18.018;2022-09-28T05:16:47;99964.84;;;13.24;100.00
14134;BME280;7147;59.364;18.018;2022-09-28T05:19:14;99974.19;;;13.23;100.00
14134;BME280;7147;59.364;18.018;2022-09-28T05:21:43;99966.91;;;13.28;100.00
14134;BME280;7147;59.364;18.018;2022-09-28T05:24:10;99967.13;;;13.27;100.00
14134;BME280;7147;59.364;18.018;2022-09-28T05:26:37;99959.22;;;13.30;100.00
14134;BME280;7147;59.364;18.018;2022-09-28T05:29:04;99966.66;;;13.18;100.00
14134;BME280;7147;59.364;18.018;2022-09-28T05:31:32;99970.38;;;13.24;100.00
14134;BME280;7147;59.364;18.018;2022-09-28T05:33:59;99970.84;;;13.32;100.00
14134;BME280;7147;59.364;18.018;2022-09-28T05:36:25;99976.75;;;13.36;100.00
14134;BME280;7147;59.364;18.018;2022-09-28T05:38:52;99974.56;;;13.26;100.00
14134;BME280;7147;59.364;18.018;2022-09-28T05:41:19;99968.47;;;13.24;100.00
14134;BME280;7147;59.364;18.018;2022-09-28T05:43:46;99971.59;;;13.28;100.00
14134;BME280;7147;59.364;18.018;2022-09-28T05:46:13;99975.41;;;13.27;100.00
14134;BME280;7147;59.364;18.018;2022-09-28T05:48:41;99975.41;;;13.27;100.00
14134;BME280;7147;59.364;18.018;2022-09-28T05:51:08;99974.94;;;13.30;100.00
14134;BME280;7147;59.364;18.018;2022-09-28T05:53:36;99972.91;;;13.25;100.00
14134;BME280;7147;59.364;18.018;2022-09-28T05:56:03;99978.28;;;13.20;100.00
14134;BME280;7147;59.364;18.018;2022-09-28T05:58:30;99989.00;;;13.28;100.00
14134;BME280;7147;59.364;18.018;2022-09-28T06:00:57;99970.84;;;13.21;100.00
14134;BME280;7147;59.364;18.018;2022-09-28T06:03:24;99973.97;;;13.13;100.00
14134;BME280;7147;59.364;18.018;2022-09-28T06:05:53;99975.06;;;13.12;100.00
14134;BME280;7147;59.364;18.018;2022-09-28T06:08:19;99987.31;;;13.16;100.00
14134;BME280;7147;59.364;18.018;2022-09-28T06:10:46;99991.50;;;13.30;100.00
14134;BME280;7147;59.364;18.018;2022-09-28T06:13:13;99991.03;;;13.33;100.00
14134;BME280;7147;59.364;18.018;2022-09-28T06:15:41;99989.59;;;13.30;100.00
14134;BME280;7147;59.364;18.018;2022-09-28T06:18:10;99997.03;;;13.30;100.00
14134;BME280;7147;59.364;18.018;2022-09-28T06:20:39;99984.78;;;13.26;100.00
14134;BME280;7147;59.364;18.018;2022-09-28T06:23:08;99998.00;;;13.24;100.00
14134;BME280;7147;59.364;18.018;2022-09-28T06:25:35;99992.34;;;13.42;100.00
14134;BME280;7147;59.364;18.018;2022-09-28T06:28:04;99989.81;;;13.40;100.00
14134;BME280;7147;59.364;18.018;2022-09-28T06:30:33;99980.94;;;13.38;100.00
14134;BME280;7147;59.364;18.018;2022-09-28T06:33:05;99994.84;;;13.55;100.00
14134;BME280;7147;59.364;18.018;2022-09-28T06:35:34;100004.72;;;13.51;100.00
14134;BME280;7147;59.364;18.018;2022-09-28T06:38:01;99999.22;;;13.51;100.00
14134;BME280;7147;59.364;18.018;2022-09-28T06:40:30;99994.88;;;13.32;100.00
14134;BME280;7147;59.364;18.018;2022-09-28T06:42:59;100003.03;;;13.50;100.00
14134;BME280;7147;59.364;18.018;2022-09-28T06:45:28;100008.81;;;13.60;100.00
14134;BME280;7147;59.364;18.018;2022-09-28T06:47:56;100000.16;;;13.57;100.00
14134;BME280;7147;59.364;18.018;2022-09-28T06:50:24;100001.84;;;13.46;100.00
14134;BME280;7147;59.364;18.018;2022-09-28T06:52:52;100005.81;;;13.38;100.00
14134;BME280;7147;59.364;18.018;2022-09-28T06:55:20;100007.97;;;13.48;100.00
14134;BME280;7147;59.364;18.018;2022-09-28T06:57:56;100000.41;;;13.67;100.00
14134;BME280;7147;59.364;18.018;2022-09-28T07:00:24;99997.03;;;13.53;100.00
14134;BME280;7147;59.364;18.018;2022-09-28T07:02:51;99996.31;;;13.69;100.00
14134;BME280;7147;59.364;18.018;2022-09-28T07:05:17;99997.00;;;13.76;100.00
14134;BME280;7147;59.364;18.018;2022-09-28T07:07:52;100001.94;;;13.74;100.00
14134;BME280;7147;59.364;18.018;2022-09-28T07:10:20;99998.44;;;13.67;100.00
14134;BME280;7147;59.364;18.018;2022-09-28T07:12:49;100002.28;;;13.89;100.00
14134;BME280;7147;59.364;18.018;2022-09-28T07:15:16;100005.88;;;14.02;100.00
14134;BME280;7147;59.364;18.018;2022-09-28T07:17:43;100000.09;;;13.91;100.00
14134;BME280;7147;59.364;18.018;2022-09-28T07:20:10;100000.06;;;14.03;100.00
14134;BME280;7147;59.364;18.018;2022-09-28T07:22:37;100002.94;;;14.20;100.00
14134;BME280;7147;59.364;18.018;2022-09-28T07:25:05;100004.50;;;14.16;100.00
14134;BME280;7147;59.364;18.018;2022-09-28T07:27:32;100000.25;;;14.25;100.00
14134;BME280;7147;59.364;18.018;2022-09-28T07:30:01;100006.50;;;14.20;100.00
14134;BME280;7147;59.364;18.018;2022-09-28T07:32:27;100012.78;;;14.16;100.00
14134;BME280;7147;59.364;18.018;2022-09-28T07:34:54;100010.84;;;14.28;100.00
14134;BME280;7147;59.364;18.018;2022-09-28T07:37:22;100001.53;;;14.45;100.00
14134;BME280;7147;59.364;18.018;2022-09-28T07:39:50;100007.53;;;14.71;100.00
14134;BME280;7147;59.364;18.018;2022-09-28T07:42:35;100005.47;;;14.78;100.00
14134;BME280;7147;59.364;18.018;2022-09-28T07:45:04;100004.59;;;14.61;100.00
14134;BME280;7147;59.364;18.018;2022-09-28T07:47:31;100003.81;;;14.48;100.00
14134;BME280;7147;59.364;18.018;2022-09-28T07:49:58;100003.38;;;14.40;100.00
14134;BME280;7147;59.364;18.018;2022-09-28T07:52:25;100004.34;;;14.22;100.00
14134;BME280;7147;59.364;18.018;2022-09-28T07:54:53;100013.88;;;14.15;100.00
14134;BME280;7147;59.364;18.018;2022-09-28T07:57:21;100009.50;;;14.30;100.00
14134;BME280;7147;59.364;18.018;2022-09-28T07:59:48;100005.28;;;14.39;100.00
14134;BME280;7147;59.364;18.018;2022-09-28T08:02:21;100010.19;;;14.49;100.00
14134;BME280;7147;59.364;18.018;2022-09-28T08:04:49;100014.25;;;14.58;100.00
14134;BME280;7147;59.364;18.018;2022-09-28T08:07:17;100026.78;;;14.77;100.00
14134;BME280;7147;59.364;18.018;2022-09-28T08:09:44;100018.53;;;14.66;100.00
14134;BME280;7147;59.364;18.018;2022-09-28T08:12:12;100016.34;;;14.68;100.00
14134;BME280;7147;59.364;18.018;2022-09-28T08:14:39;100026.28;;;14.80;100.00
14134;BME280;7147;59.364;18.018;2022-09-28T08:17:06;100027.97;;;14.81;100.00
14134;BME280;7147;59.364;18.018;2022-09-28T08:19:36;100035.00;;;14.89;100.00
14134;BME280;7147;59.364;18.018;2022-09-28T08:22:18;100029.13;;;14.85;100.00
14134;BME280;7147;59.364;18.018;2022-09-28T08:24:45;100031.81;;;14.80;100.00
14134;BME280;7147;59.364;18.018;2022-09-28T08:27:14;100027.25;;;14.74;100.00
14134;BME280;7147;59.364;18.018;2022-09-28T08:29:41;100022.72;;;14.68;100.00
14134;BME280;7147;59.364;18.018;2022-09-28T08:32:09;100020.56;;;14.70;100.00
14134;BME280;7147;59.364;18.018;2022-09-28T08:34:38;100006.88;;;14.64;100.00
14134;BME280;7147;59.364;18.018;2022-09-28T08:37:07;99996.72;;;14.69;100.00
14134;BME280;7147;59.364;18.018;2022-09-28T08:39:34;100022.50;;;14.70;100.00
14134;BME280;7147;59.364;18.018;2022-09-28T08:42:11;100027.53;;;14.73;100.00
14134;BME280;7147;59.364;18.018;2022-09-28T08:44:42;100023.97;;;14.61;100.00
14134;BME280;7147;59.364;18.018;2022-09-28T08:47:15;100018.03;;;14.69;100.00
14134;BME280;7147;59.364;18.018;2022-09-28T08:49:59;100034.38;;;14.98;100.00
14134;BME280;7147;59.364;18.018;2022-09-28T08:52:32;100012.19;;;14.98;100.00
14134;BME280;7147;59.364;18.018;2022-09-28T08:55:03;100027.31;;;15.07;100.00
14134;BME280;7147;59.364;18.018;2022-09-28T08:57:39;100027.97;;;14.98;100.00
14134;BME280;7147;59.364;18.018;2022-09-28T09:00:15;100034.66;;;14.85;100.00
14134;BME280;7147;59.364;18.018;2022-09-28T09:02:43;100028.81;;;14.98;100.00
14134;BME280;7147;59.364;18.018;2022-09-28T09:05:15;100030.41;;;14.94;100.00
14134;BME280;7147;59.364;18.018;2022-09-28T09:08:10;100027.75;;;14.99;100.00
14134;BME280;7147;59.364;18.018;2022-09-28T09:10:51;100008.66;;;14.70;100.00
14134;BME280;7147;59.364;18.018;2022-09-28T09:13:36;100039.78;;;14.77;100.00
14134;BME280;7147;59.364;18.018;2022-09-28T09:16:12;100034.66;;;14.85;100.00
14134;BME280;7147;59.364;18.018;2022-09-28T09:18:42;100044.09;;;14.84;100.00
14134;BME280;7147;59.364;18.018;2022-09-28T09:21:25;100040.97;;;14.81;100.00
14134;BME280;7147;59.364;18.018;2022-09-28T09:23:55;100033.50;;;14.81;100.00
14134;BME280;7147;59.364;18.018;2022-09-28T09:26:32;100053.63;;;14.77;100.00
14134;BME280;7147;59.364;18.018;2022-09-28T09:29:15;100049.06;;;14.71;100.00
14134;BME280;7147;59.364;18.018;2022-09-28T09:31:57;100045.25;;;14.88;100.00
14134;BME280;7147;59.364;18.018;2022-09-28T09:34:40;100048.13;;;14.93;100.00
14134;BME280;7147;59.364;18.018;2022-09-28T09:40:27;100049.13;;;14.87;100.00
14134;BME280;7147;59.364;18.018;2022-09-28T09:43:09;100047.84;;;14.78;100.00
14134;BME280;7147;59.364;18.018;2022-09-28T09:45:53;100042.94;;;14.69;100.00
14134;BME280;7147;59.364;18.018;2022-09-28T09:48:28;100039.66;;;14.55;100.00
14134;BME280;7147;59.364;18.018;2022-09-28T09:51:02;100044.69;;;14.58;100.00
14134;BME280;7147;59.364;18.018;2022-09-28T09:53:35;100044.31;;;14.83;100.00
14134;BME280;7147;59.364;18.018;2022-09-28T09:56:11;100048.06;;;14.77;100.00
14134;BME280;7147;59.364;18.018;2022-09-28T09:58:42;100051.59;;;14.72;100.00
14134;BME280;7147;59.364;18.018;2022-09-28T10:01:15;100049.00;;;14.82;100.00
14134;BME280;7147;59.364;18.018;2022-09-28T10:03:44;100047.22;;;14.76;100.00
14134;BME280;7147;59.364;18.018;2022-09-28T10:06:16;100050.75;;;14.72;100.00
14134;BME280;7147;59.364;18.018;2022-09-28T10:08:48;100052.94;;;14.70;100.00
14134;BME280;7147;59.364;18.018;2022-09-28T10:11:19;100059.81;;;14.67;100.00
14134;BME280;7147;59.364;18.018;2022-09-28T10:13:51;100055.84;;;14.63;100.00
14134;BME280;7147;59.364;18.018;2022-09-28T10:16:18;100055.09;;;14.68;100.00
14134;BME280;7147;59.364;18.018;2022-09-28T10:18:46;100050.72;;;14.55;100.00
14134;BME280;7147;59.364;18.018;2022-09-28T10:21:14;100049.47;;;14.34;100.00
14134;BME280;7147;59.364;18.018;2022-09-28T10:23:43;100058.72;;;14.40;100.00
14134;BME280;7147;59.364;18.018;2022-09-28T10:26:14;100054.88;;;14.69;100.00
14134;BME280;7147;59.364;18.018;2022-09-28T10:28:52;100050.13;;;14.81;100.00
14134;BME280;7147;59.364;18.018;2022-09-28T10:31:35;100050.63;;;14.78;100.00
14134;BME280;7147;59.364;18.018;2022-09-28T10:34:09;100046.78;;;14.68;100.00
14134;BME280;7147;59.364;18.018;2022-09-28T10:36:52;100055.34;;;14.94;100.00
14134;BME280;7147;59.364;18.018;2022-09-28T10:39:28;100045.50;;;14.70;100.00
14134;BME280;7147;59.364;18.018;2022-09-28T10:41:59;100042.97;;;14.85;100.00
14134;BME280;7147;59.364;18.018;2022-09-28T10:44:31;100040.47;;;14.56;100.00
14134;BME280;7147;59.364;18.018;2022-09-28T10:47:00;100049.47;;;14.34;100.00
14134;BME280;7147;59.364;18.018;2022-09-28T10:49:34;100043.69;;;14.36;100.00
14134;BME280;7147;59.364;18.018;2022-09-28T10:52:04;100045.94;;;14.39;100.00
14134;BME280;7147;59.364;18.018;2022-09-28T10:54:33;100036.44;;;14.46;100.00
14134;BME280;7147;59.364;18.018;2022-09-28T10:57:01;100048.25;;;14.30;100.00
14134;BME280;7147;59.364;18.018;2022-09-28T10:59:40;100044.56;;;14.13;100.00
14134;BME280;7147;59.364;18.018;2022-09-28T11:02:19;100039.47;;;14.22;100.00
14134;BME280;7147;59.364;18.018;2022-09-28T11:04:52;100042.44;;;14.32;100.00
14134;BME280;7147;59.364;18.018;2022-09-28T11:07:22;100045.66;;;14.01;100.00
14134;BME280;7147;59.364;18.018;2022-09-28T11:09:51;100039.56;;;14.27;100.00
14134;BME280;7147;59.364;18.018;2022-09-28T11:12:20;100033.59;;;14.18;100.00
14134;BME280;7147;59.364;18.018;2022-09-28T11:14:55;100048.31;;;13.95;100.00
14134;BME280;7147;59.364;18.018;2022-09-28T11:17:26;100036.97;;;14.09;100.00
14134;BME280;7147;59.364;18.018;2022-09-28T11:19:53;100041.81;;;14.02;100.00
14134;BME280;7147;59.364;18.018;2022-09-28T11:22:26;100032.19;;;14.04;100.00
14134;BME280;7147;59.364;18.018;2022-09-28T11:25:19;100031.47;;;13.97;100.00
14134;BME280;7147;59.364;18.018;2022-09-28T11:27:55;100026.88;;;14.03;100.00
14134;BME280;7147;59.364;18.018;2022-09-28T11:30:26;100025.81;;;14.04;100.00
14134;BME280;7147;59.364;18.018;2022-09-28T11:33:00;100026.94;;;14.31;100.00
14134;BME280;7147;59.364;18.018;2022-09-28T11:35:40;100015.47;;;14.50;100.00
14134;BME280;7147;59.364;18.018;2022-09-28T11:38:20;100027.16;;;14.41;100.00
14134;BME280;7147;59.364;18.018;2022-09-28T11:41:01;100029.66;;;14.54;100.00
14134;BME280;7147;59.364;18.018;2022-09-28T11:43:49;100019.16;;;14.56;100.00
14134;BME280;7147;59.364;18.018;2022-09-28T11:46:25;100022.44;;;14.53;100.00
14134;BME280;7147;59.364;18.018;2022-09-28T11:49:01;100016.22;;;14.46;100.00
14134;BME280;7147;59.364;18.018;2022-09-28T11:51:30;100019.22;;;14.44;100.00
14134;BME280;7147;59.364;18.018;2022-09-28T11:54:02;100018.63;;;14.42;100.00
14134;BME280;7147;59.364;18.018;2022-09-28T11:56:40;100025.66;;;14.22;100.00
14134;BME280;7147;59.364;18.018;2022-09-28T11:59:12;100018.34;;;14.04;100.00
14134;BME280;7147;59.364;18.018;2022-09-28T12:01:46;100013.38;;;13.66;100.00
14134;BME280;7147;59.364;18.018;2022-09-28T12:04:17;100020.72;;;13.61;100.00
14134;BME280;7147;59.364;18.018;2022-09-28T12:06:49;100014.94;;;13.51;100.00
14134;BME280;7147;59.364;18.018;2022-09-28T12:09:20;100022.84;;;13.59;100.00
14134;BME280;7147;59.364;18.018;2022-09-28T12:11:50;100023.94;;;13.69;100.00
14134;BME280;7147;59.364;18.018;2022-09-28T12:14:22;100019.97;;;13.77;100.00
14134;BME280;7147;59.364;18.018;2022-09-28T12:16:56;100022.47;;;13.90;100.00
14134;BME280;7147;59.364;18.018;2022-09-28T12:19:29;100017.06;;;13.95;100.00
14134;BME280;7147;59.364;18.018;2022-09-28T12:22:02;100020.19;;;13.87;100.00
14134;BME280;7147;59.364;18.018;2022-09-28T12:24:35;100015.53;;;13.64;100.00
14134;BME280;7147;59.364;18.018;2022-09-28T12:27:10;100007.00;;;13.54;100.00
14134;BME280;7147;59.364;18.018;2022-09-28T12:29:40;100006.06;;;13.49;100.00
14134;BME280;7147;59.364;18.018;2022-09-28T12:32:20;100013.50;;;13.60;100.00
14134;BME280;7147;59.364;18.018;2022-09-28T12:34:50;100014.34;;;13.60;100.00
14134;BME280;7147;59.364;18.018;2022-09-28T12:37:29;100017.56;;;13.69;100.00
14134;BME280;7147;59.364;18.018;2022-09-28T12:40:22;100010.31;;;13.91;100.00
14134;BME280;7147;59.364;18.018;2022-09-28T12:43:08;100019.84;;;14.23;100.00
14134;BME280;7147;59.364;18.018;2022-09-28T12:45:51;99998.69;;;14.29;100.00
14134;BME280;7147;59.364;18.018;2022-09-28T12:48:35;100008.72;;;14.07;100.00
14134;BME280;7147;59.364;18.018;2022-09-28T12:51:17;100015.50;;;13.76;100.00
14134;BME280;7147;59.364;18.018;2022-09-28T12:53:57;100012.63;;;13.82;100.00
14134;BME280;7147;59.364;18.018;2022-09-28T12:56:32;100001.78;;;13.92;100.00
14134;BME280;7147;59.364;18.018;2022-09-28T12:59:14;100005.56;;;14.15;100.00
14134;BME280;7147;59.364;18.018;2022-09-28T13:02:00;99997.91;;;14.45;100.00
14134;BME280;7147;59.364;18.018;2022-09-28T13:05:09;99996.13;;;14.39;100.00
14134;BME280;7147;59.364;18.018;2022-09-28T13:07:45;100002.13;;;14.08;100.00
14134;BME280;7147;59.364;18.018;2022-09-28T13:10:18;100004.81;;;13.79;100.00
14134;BME280;7147;59.364;18.018;2022-09-28T13:13:00;99992.94;;;13.44;100.00
14134;BME280;7147;59.364;18.018;2022-09-28T13:15:39;99992.72;;;13.34;100.00
14134;BME280;7147;59.364;18.018;2022-09-28T13:18:15;99998.84;;;13.36;100.00